Time;durP1;ratioP1;P1;durP2;ratioP2;P2;SDS_P1;SDS_P2;PMS_P1;PMS_P2;Temp;Humidity;BMP_temperature;BMP_pressure;BME280_temperature;BME280_humidity;BME280_pressure;Samples;Min_cycle;Max_cycle;Signal;HPM_P1;HPM_P2
2024/01/02 00:01:49;;;;;;;23.35;3.72;;;5.70;99.90;;;;;;5024830;28;20087;-84
2024/01/02 00:04:15;;;;;;;13.23;3.08;;;5.70;99.90;;;;;;5026947;28;20435;-79
2024/01/02 00:06:41;;;;;;;25.92;4.75;;;5.70;99.90;;;;;;5022515;28;20025;-80
2024/01/02 00:09:07;;;;;;;21.33;3.65;;;5.70;99.90;;;;;;5021202;28;20394;-82
2024/01/02 00:11:32;;;;;;;24.42;4.50;;;5.60;99.90;;;;;;5021791;28;20037;-80
2024/01/02 00:13:58;;;;;;;15.10;3.15;;;5.60;99.90;;;;;;5015696;28;20013;-79
2024/01/02 00:16:23;;;;;;;24.23;3.85;;;5.60;99.90;;;;;;5014681;28;20033;-80
2024/01/02 00:18:49;;;;;;;20.13;3.85;;;5.60;99.90;;;;;;5025844;28;20087;-80
2024/01/02 00:21:15;;;;;;;20.58;3.80;;;5.60;99.90;;;;;;5020428;28;20033;-79
2024/01/02 00:23:40;;;;;;;13.48;3.53;;;5.50;99.90;;;;;;5024390;28;20052;-83
2024/01/02 00:26:06;;;;;;;11.65;3.15;;;5.50;99.90;;;;;;5024763;28;20079;-80
2024/01/02 00:28:31;;;;;;;14.43;3.63;;;5.50;99.90;;;;;;5019750;28;20478;-79
2024/01/02 00:30:57;;;;;;;17.88;3.70;;;5.40;99.90;;;;;;5020183;28;20720;-80
2024/01/02 00:33:23;;;;;;;15.10;3.05;;;5.30;99.90;;;;;;5018962;28;20034;-81
2024/01/02 00:35:48;;;;;;;19.40;3.72;;;5.30;99.90;;;;;;5024338;28;20080;-79
2024/01/02 00:38:14;;;;;;;17.13;4.95;;;5.20;99.90;;;;;;5022552;28;20490;-80
2024/01/02 00:40:39;;;;;;;10.00;2.63;;;5.10;99.90;;;;;;5019837;28;20087;-80
2024/01/02 00:43:05;;;;;;;27.08;4.20;;;5.10;99.90;;;;;;5015129;28;20025;-79
2024/01/02 00:45:30;;;;;;;38.55;5.82;;;5.00;99.90;;;;;;5023956;28;20030;-80
2024/01/02 00:47:56;;;;;;;32.42;5.50;;;5.00;99.90;;;;;;5022279;28;20284;-80
2024/01/02 00:50:22;;;;;;;17.65;3.90;;;5.00;99.90;;;;;;5018926;28;20085;-79
2024/01/02 00:52:48;;;;;;;20.27;4.10;;;5.10;99.90;;;;;;5016935;28;20046;-79
2024/01/02 00:55:15;;;;;;;23.45;5.10;;;5.20;99.90;;;;;;5021589;28;20485;-79
2024/01/02 00:57:40;;;;;;;27.13;4.50;;;5.30;99.90;;;;;;5027449;28;20029;-80
2024/01/02 01:00:07;;;;;;;26.17;5.78;;;5.30;99.90;;;;;;5022753;28;20029;-80
2024/01/02 01:02:33;;;;;;;19.08;4.65;;;5.40;99.90;;;;;;5024656;28;20071;-80
2024/01/02 01:04:58;;;;;;;26.83;4.30;;;5.40;99.90;;;;;;5019149;28;20089;-80
2024/01/02 01:07:24;;;;;;;21.90;5.25;;;5.50;99.90;;;;;;5018437;28;20029;-83
2024/01/02 01:09:49;;;;;;;25.80;4.82;;;5.50;99.90;;;;;;5024718;28;20026;-80
2024/01/02 01:12:16;;;;;;;28.27;4.25;;;5.50;99.90;;;;;;5034080;28;20079;-84
2024/01/02 01:14:41;;;;;;;19.10;3.55;;;5.50;99.90;;;;;;5020009;28;20040;-80
2024/01/02 01:17:07;;;;;;;13.85;3.53;;;5.50;99.90;;;;;;5025878;28;20449;-80
2024/01/02 01:19:36;;;;;;;18.52;4.28;;;5.50;99.90;;;;;;5023235;28;20029;-83
2024/01/02 01:22:02;;;;;;;20.60;3.70;;;5.60;99.90;;;;;;5033005;28;20053;-79
2024/01/02 01:24:27;;;;;;;13.68;3.50;;;5.50;99.90;;;;;;5028497;28;20677;-79
2024/01/02 01:26:53;;;;;;;17.80;4.10;;;5.50;99.90;;;;;;5028036;28;20445;-80
2024/01/02 01:29:20;;;;;;;19.13;2.83;;;5.50;99.90;;;;;;5024954;28;20029;-79
2024/01/02 01:31:46;;;;;;;12.90;3.35;;;5.60;99.90;;;;;;5022083;28;20125;-80
2024/01/02 01:34:12;;;;;;;16.88;3.40;;;5.50;99.90;;;;;;5024323;28;20036;-80
2024/01/02 01:36:38;;;;;;;12.98;2.80;;;5.50;99.90;;;;;;5024406;28;20025;-80
2024/01/02 01:39:04;;;;;;;19.02;4.82;;;5.50;99.90;;;;;;5024423;28;20030;-79
2024/01/02 01:41:30;;;;;;;20.33;3.25;;;5.50;99.90;;;;;;5024098;28;20053;-81
2024/01/02 01:43:57;;;;;;;29.10;7.25;;;5.50;99.90;;;;;;5025683;28;20045;-80
2024/01/02 01:46:33;;;;;;;18.02;3.17;;;5.50;99.90;;;;;;5027035;28;20721;-82
2024/01/02 01:48:59;;;;;;;16.40;3.53;;;5.50;99.90;;;;;;5028486;28;20030;-80
2024/01/02 01:51:25;;;;;;;18.45;3.25;;;5.50;99.90;;;;;;5024762;28;20088;-80
2024/01/02 01:53:51;;;;;;;20.50;4.75;;;5.50;99.90;;;;;;5022278;28;20021;-80
2024/01/02 01:56:17;;;;;;;16.27;3.63;;;5.50;99.90;;;;;;5026155;28;20196;-79
2024/01/02 01:58:42;;;;;;;15.75;3.35;;;5.40;99.90;;;;;;5022959;28;20067;-79
2024/01/02 02:01:08;;;;;;;12.70;3.13;;;5.40;99.90;;;;;;5024042;28;20049;-80
2024/01/02 02:03:35;;;;;;;18.38;3.45;;;5.40;99.90;;;;;;5019887;28;20045;-82
2024/01/02 02:06:01;;;;;;;16.48;3.42;;;5.40;99.90;;;;;;5024842;28;20390;-80
2024/01/02 02:08:26;;;;;;;17.70;4.72;;;5.50;99.90;;;;;;5024450;28;20026;-80
2024/01/02 02:10:52;;;;;;;16.88;3.63;;;5.50;99.90;;;;;;5023294;28;20386;-80
2024/01/02 02:13:21;;;;;;;25.10;4.20;;;5.50;99.90;;;;;;5027231;28;20039;-84
2024/01/02 02:15:48;;;;;;;21.63;3.75;;;5.50;99.90;;;;;;5023581;28;20045;-80
2024/01/02 02:18:14;;;;;;;24.98;4.72;;;5.50;99.90;;;;;;5024087;28;20037;-80
2024/01/02 02:20:40;;;;;;;37.03;4.43;;;5.50;99.90;;;;;;5027284;28;20030;-80
2024/01/02 02:23:09;;;;;;;28.00;3.80;;;5.50;99.90;;;;;;5027388;28;20025;-84
2024/01/02 02:25:35;;;;;;;19.92;4.03;;;5.50;99.90;;;;;;5023448;28;20032;-79
2024/01/02 02:28:00;;;;;;;27.25;6.80;;;5.60;99.90;;;;;;5017188;28;20025;-79
2024/01/02 02:30:26;;;;;;;18.10;3.05;;;5.60;99.90;;;;;;5025826;28;20208;-80
2024/01/02 02:32:51;;;;;;;23.45;3.53;;;5.60;99.90;;;;;;5020190;28;20068;-82
2024/01/02 02:35:17;;;;;;;16.85;3.28;;;5.60;99.90;;;;;;5022038;28;20367;-79
2024/01/02 02:37:43;;;;;;;15.00;3.05;;;5.60;99.90;;;;;;5023580;28;20022;-80
2024/01/02 02:40:09;;;;;;;24.13;6.72;;;5.70;99.90;;;;;;5022830;28;20029;-83
2024/01/02 02:42:35;;;;;;;11.48;3.33;;;5.70;99.90;;;;;;5025004;28;20038;-80
2024/01/02 02:45:01;;;;;;;12.00;2.90;;;5.70;99.90;;;;;;5019353;28;20100;-80
2024/01/02 02:47:26;;;;;;;16.35;3.20;;;5.80;99.90;;;;;;5024585;28;20021;-80
2024/01/02 02:49:52;;;;;;;6.57;2.25;;;5.80;99.90;;;;;;5022687;28;20030;-80
2024/01/02 02:52:19;;;;;;;12.48;4.07;;;5.90;99.90;;;;;;5019089;28;20051;-80
2024/01/02 02:54:45;;;;;;;15.50;2.67;;;5.90;99.90;;;;;;5025537;28;20025;-80
2024/01/02 02:57:11;;;;;;;6.18;2.40;;;5.80;99.90;;;;;;5025398;28;20029;-80
2024/01/02 02:59:36;;;;;;;12.85;2.65;;;5.90;99.90;;;;;;5022833;28;20060;-79
2024/01/02 03:02:02;;;;;;;7.22;2.10;;;5.90;99.90;;;;;;5024486;28;20052;-80
2024/01/02 03:04:27;;;;;;;12.98;2.40;;;5.90;99.90;;;;;;5024698;28;20407;-80
2024/01/02 03:06:53;;;;;;;12.32;2.25;;;6.00;99.90;;;;;;5024886;28;20025;-81
2024/01/02 03:09:22;;;;;;;8.98;2.03;;;5.90;99.90;;;;;;5024075;28;20026;-85
2024/01/02 03:11:48;;;;;;;6.78;2.22;;;5.90;99.90;;;;;;5022897;28;20175;-80
2024/01/02 03:14:14;;;;;;;11.50;2.38;;;6.00;99.90;;;;;;5021944;28;20529;-79
2024/01/02 03:16:40;;;;;;;12.95;2.35;;;6.00;99.90;;;;;;5023326;28;20382;-81
2024/01/02 03:19:06;;;;;;;10.63;3.28;;;6.00;99.90;;;;;;5023661;28;20033;-79
2024/01/02 03:21:32;;;;;;;12.88;1.92;;;6.00;99.90;;;;;;5022597;28;20025;-80
2024/01/02 03:23:58;;;;;;;6.50;1.80;;;5.90;99.90;;;;;;5015868;28;20032;-80
2024/01/02 03:26:24;;;;;;;11.60;2.53;;;5.90;99.90;;;;;;5025167;28;20045;-81
2024/01/02 03:28:50;;;;;;;9.70;1.77;;;5.90;99.90;;;;;;5018721;28;20072;-81
2024/01/02 03:31:16;;;;;;;10.68;3.60;;;5.90;99.90;;;;;;5019321;28;20711;-80
2024/01/02 03:33:42;;;;;;;12.48;2.75;;;5.90;99.90;;;;;;5016613;28;20526;-80
2024/01/02 03:36:21;;;;;;;12.52;2.38;;;5.80;99.90;;;;;;5022052;28;20028;-83
2024/01/02 03:38:47;;;;;;;5.22;2.38;;;5.80;99.90;;;;;;5020528;28;20501;-79
2024/01/02 03:41:13;;;;;;;9.95;1.80;;;5.80;99.90;;;;;;5024001;28;20382;-80
2024/01/02 03:43:39;;;;;;;11.00;2.58;;;5.80;99.90;;;;;;5023748;28;20109;-80
2024/01/02 03:46:05;;;;;;;9.50;2.00;;;5.80;99.90;;;;;;5020063;28;20021;-81
2024/01/02 03:48:31;;;;;;;7.80;2.00;;;5.80;99.90;;;;;;5041776;28;20055;-79
2024/01/02 03:50:56;;;;;;;13.57;2.47;;;5.80;99.90;;;;;;5025373;28;20025;-79
2024/01/02 03:53:23;;;;;;;8.57;2.00;;;5.80;99.90;;;;;;5024332;28;20400;-84
2024/01/02 03:55:49;;;;;;;8.70;2.42;;;5.80;99.90;;;;;;5015075;28;20034;-80
2024/01/02 03:58:14;;;;;;;12.65;3.28;;;5.80;99.90;;;;;;5020534;28;20029;-80
2024/01/02 04:00:40;;;;;;;15.52;3.10;;;5.80;99.90;;;;;;5018196;28;20049;-80
2024/01/02 04:03:06;;;;;;;13.00;2.47;;;5.80;99.90;;;;;;5020435;28;20045;-81
2024/01/02 04:05:33;;;;;;;6.57;2.40;;;5.70;99.90;;;;;;5024511;28;20026;-80
2024/01/02 04:07:58;;;;;;;8.27;2.33;;;5.80;99.90;;;;;;5017213;28;20030;-81
2024/01/02 04:10:24;;;;;;;9.75;3.10;;;5.80;99.90;;;;;;5023695;28;20152;-82
2024/01/02 04:12:49;;;;;;;9.45;2.97;;;5.70;99.90;;;;;;5016280;28;20257;-80
2024/01/02 04:15:15;;;;;;;13.27;3.95;;;5.80;99.90;;;;;;5024160;28;20521;-80
2024/01/02 04:17:41;;;;;;;8.82;2.42;;;5.80;99.90;;;;;;5023155;28;20033;-80
2024/01/02 04:20:07;;;;;;;11.88;3.22;;;5.70;99.90;;;;;;5017449;28;20026;-82
2024/01/02 04:22:32;;;;;;;19.80;3.83;;;5.70;99.90;;;;;;5025736;28;20029;-80
2024/01/02 04:24:58;;;;;;;13.15;3.38;;;5.70;99.90;;;;;;5021453;28;20032;-80
2024/01/02 04:27:23;;;;;;;11.13;2.58;;;5.70;99.90;;;;;;5017187;28;20022;-80
2024/01/02 04:29:49;;;;;;;14.70;3.35;;;5.80;99.90;;;;;;5018873;28;20037;-80
2024/01/02 04:32:15;;;;;;;8.88;2.67;;;5.70;99.90;;;;;;5019469;28;20053;-81
2024/01/02 04:34:41;;;;;;;6.15;2.60;;;5.80;99.90;;;;;;5021409;28;20029;-80
2024/01/02 04:37:06;;;;;;;13.70;3.90;;;5.70;99.90;;;;;;5025812;28;20032;-81
2024/01/02 04:39:32;;;;;;;6.15;2.10;;;5.70;99.90;;;;;;5010604;28;20028;-80
2024/01/02 04:41:58;;;;;;;15.55;3.10;;;5.70;99.90;;;;;;5016583;28;20113;-80
2024/01/02 04:44:23;;;;;;;8.43;2.38;;;5.80;99.90;;;;;;5018514;28;20029;-80
2024/01/02 04:46:49;;;;;;;12.25;2.92;;;5.80;99.90;;;;;;5018920;28;20097;-79
2024/01/02 04:49:14;;;;;;;4.70;1.70;;;5.80;99.90;;;;;;5019299;28;20087;-82
2024/01/02 04:51:40;;;;;;;8.55;2.47;;;5.80;99.90;;;;;;5021320;28;20123;-80
2024/01/02 04:54:07;;;;;;;9.68;2.17;;;5.80;99.90;;;;;;5017930;28;20033;-80
2024/01/02 04:56:33;;;;;;;7.30;2.20;;;5.70;99.90;;;;;;5022986;28;20025;-80
2024/01/02 04:58:59;;;;;;;7.78;2.17;;;5.80;99.90;;;;;;5016594;28;20021;-85
2024/01/02 05:01:25;;;;;;;6.05;2.00;;;5.70;99.90;;;;;;5022157;28;20355;-79
2024/01/02 05:03:51;;;;;;;7.65;2.20;;;5.80;99.90;;;;;;5022595;28;20029;-80
2024/01/02 05:06:16;;;;;;;12.77;3.55;;;5.70;99.90;;;;;;5017270;28;20033;-80
2024/01/02 05:08:42;;;;;;;6.18;2.13;;;5.70;99.90;;;;;;5020519;28;20059;-80
2024/01/02 05:11:07;;;;;;;10.57;2.28;;;5.70;99.90;;;;;;5020289;28;20030;-79
2024/01/02 05:13:33;;;;;;;9.10;1.95;;;5.70;99.90;;;;;;5018487;28;20657;-79
2024/01/02 05:15:58;;;;;;;10.68;2.63;;;5.70;99.90;;;;;;5024760;28;20087;-79
2024/01/02 05:18:24;;;;;;;6.38;2.38;;;5.70;99.90;;;;;;5019134;28;20032;-81
2024/01/02 05:20:49;;;;;;;13.50;2.88;;;5.70;99.90;;;;;;5015705;28;20037;-79
2024/01/02 05:23:15;;;;;;;7.78;2.15;;;5.70;99.90;;;;;;5016115;28;20026;-81
2024/01/02 05:25:42;;;;;;;12.02;2.72;;;5.70;99.90;;;;;;5017112;28;20416;-80
2024/01/02 05:28:07;;;;;;;11.75;2.13;;;5.60;99.90;;;;;;5018741;28;20056;-80
2024/01/02 05:30:33;;;;;;;4.70;1.90;;;5.60;99.90;;;;;;5020113;28;20018;-81
2024/01/02 05:32:59;;;;;;;8.70;2.17;;;5.60;99.90;;;;;;5018409;28;20048;-79
2024/01/02 05:35:24;;;;;;;8.32;1.85;;;5.60;99.90;;;;;;5021405;28;20472;-79
2024/01/02 05:37:50;;;;;;;4.68;1.70;;;5.70;99.90;;;;;;5021457;28;20386;-80
2024/01/02 05:40:15;;;;;;;5.13;1.90;;;5.60;99.90;;;;;;5019577;28;20025;-82
2024/01/02 05:42:41;;;;;;;5.65;1.58;;;5.60;99.90;;;;;;5016775;28;20433;-82
2024/01/02 05:45:07;;;;;;;4.85;1.83;;;5.60;99.90;;;;;;5015672;28;20029;-83
2024/01/02 05:47:32;;;;;;;5.38;1.80;;;5.60;99.90;;;;;;5021330;28;20025;-83
2024/01/02 05:49:58;;;;;;;5.32;2.35;;;5.60;99.90;;;;;;5017098;28;20404;-82
2024/01/02 05:52:24;;;;;;;9.65;1.88;;;5.60;99.90;;;;;;5031323;28;20500;-82
2024/01/02 05:54:49;;;;;;;8.25;1.90;;;5.50;99.90;;;;;;5022183;28;20159;-85
2024/01/02 05:57:15;;;;;;;5.82;2.10;;;5.50;99.90;;;;;;5024354;28;20057;-80
2024/01/02 05:59:40;;;;;;;4.65;1.63;;;5.50;99.90;;;;;;5020025;28;20525;-81
2024/01/02 06:02:06;;;;;;;3.95;1.90;;;5.50;99.90;;;;;;5019067;28;20052;-82
2024/01/02 06:04:32;;;;;;;7.63;2.30;;;5.40;99.90;;;;;;5015602;28;20475;-81
2024/01/02 06:06:59;;;;;;;5.55;1.52;;;5.40;99.90;;;;;;5021799;28;20060;-83
2024/01/02 06:09:25;;;;;;;4.80;1.80;;;5.40;99.90;;;;;;5029520;28;20033;-82
2024/01/02 06:11:50;;;;;;;3.25;1.58;;;5.30;99.90;;;;;;5025896;28;20534;-80
2024/01/02 06:14:17;;;;;;;10.23;2.20;;;5.30;99.90;;;;;;5026851;28;20387;-82
2024/01/02 06:16:42;;;;;;;3.20;1.42;;;5.20;99.90;;;;;;5042439;28;20115;-82
2024/01/02 06:19:08;;;;;;;5.03;1.38;;;5.20;99.90;;;;;;5026200;28;20121;-84
2024/01/02 06:21:33;;;;;;;3.05;1.27;;;5.20;99.90;;;;;;5023322;28;20025;-82
2024/01/02 06:23:59;;;;;;;3.70;1.40;;;5.20;99.90;;;;;;5018356;28;20034;-84
2024/01/02 06:26:25;;;;;;;8.90;1.70;;;5.10;99.90;;;;;;5022983;28;20047;-85
2024/01/02 06:28:51;;;;;;;6.47;1.58;;;5.10;99.90;;;;;;5031008;28;20041;-83
2024/01/02 06:31:19;;;;;;;3.90;1.50;;;5.10;99.90;;;;;;5031893;28;20037;-83
2024/01/02 06:33:45;;;;;;;4.45;1.38;;;5.10;99.90;;;;;;5020612;28;20029;-83
2024/01/02 06:36:11;;;;;;;3.28;1.30;;;5.00;99.90;;;;;;5025384;28;20406;-83
2024/01/02 06:38:38;;;;;;;1.58;1.20;;;5.00;99.90;;;;;;5022858;28;20048;-84
2024/01/02 06:41:06;;;;;;;1.30;1.20;;;5.00;99.90;;;;;;5026823;28;20112;-85
2024/01/02 06:43:32;;;;;;;3.38;1.70;;;5.00;99.90;;;;;;5022930;28;20033;-84
2024/01/02 06:45:57;;;;;;;2.75;1.20;;;5.00;99.90;;;;;;5022394;28;20493;-84
2024/01/02 06:48:23;;;;;;;1.95;1.05;;;4.90;99.90;;;;;;5020917;28;20036;-84
2024/01/02 06:50:49;;;;;;;2.13;1.20;;;4.90;99.90;;;;;;5023160;28;20029;-81
2024/01/02 06:53:14;;;;;;;0.95;0.95;;;4.90;99.90;;;;;;5026465;28;20083;-84
2024/01/02 06:55:40;;;;;;;1.67;1.30;;;4.90;99.90;;;;;;5019024;28;20026;-83
2024/01/02 06:58:05;;;;;;;3.60;1.40;;;4.90;99.90;;;;;;5028197;28;20045;-83
2024/01/02 07:00:32;;;;;;;2.28;1.25;;;4.90;99.90;;;;;;5037826;28;20105;-84
2024/01/02 07:02:58;;;;;;;1.27;0.95;;;4.80;99.90;;;;;;5020850;28;20042;-84
2024/01/02 07:05:25;;;;;;;2.53;1.30;;;4.80;99.90;;;;;;5020848;28;20029;-86
2024/01/02 07:07:51;;;;;;;1.08;1.08;;;4.80;99.90;;;;;;5022071;28;20037;-83
2024/01/02 07:10:16;;;;;;;2.28;1.20;;;4.90;99.90;;;;;;5015446;28;20079;-82
2024/01/02 07:12:42;;;;;;;1.30;1.20;;;4.80;99.90;;;;;;5024593;28;20401;-83
2024/01/02 07:15:08;;;;;;;2.20;1.40;;;4.80;99.90;;;;;;5015078;28;20533;-85
2024/01/02 07:17:33;;;;;;;2.85;1.20;;;4.80;99.90;;;;;;5021206;28;20049;-84
2024/01/02 07:19:59;;;;;;;2.38;1.05;;;4.80;99.90;;;;;;5030391;28;20275;-85
2024/01/02 07:22:28;;;;;;;1.10;1.10;;;4.80;99.90;;;;;;5019341;28;20397;-86
2024/01/02 07:24:57;;;;;;;1.10;1.00;;;4.80;99.90;;;;;;5023895;28;20030;-95
2024/01/02 07:27:22;;;;;;;1.77;1.02;;;4.80;99.90;;;;;;5021284;28;20033;-90
2024/01/02 07:29:48;;;;;;;1.00;1.00;;;4.80;99.90;;;;;;5016473;28;20164;-84
2024/01/02 07:32:17;;;;;;;1.13;1.10;;;4.80;99.90;;;;;;5024105;28;20037;-84
2024/01/02 07:34:42;;;;;;;1.75;1.00;;;4.80;99.90;;;;;;5022845;28;20124;-88
2024/01/02 07:37:08;;;;;;;0.95;0.95;;;4.80;99.90;;;;;;5017803;28;20449;-84
2024/01/02 07:39:34;;;;;;;1.48;1.08;;;4.80;99.90;;;;;;5021301;28;20081;-86
2024/01/02 07:42:00;;;;;;;0.80;0.80;;;4.70;99.90;;;;;;5021074;28;20104;-85
2024/01/02 07:44:25;;;;;;;0.90;0.90;;;4.70;99.90;;;;;;5022318;28;20029;-81
2024/01/02 07:46:51;;;;;;;0.90;0.90;;;4.70;99.90;;;;;;5023120;28;20522;-83
2024/01/02 07:49:16;;;;;;;0.90;0.90;;;4.70;99.90;;;;;;5016285;28;20037;-83
2024/01/02 07:51:42;;;;;;;1.00;0.90;;;4.70;99.90;;;;;;5017904;28;20046;-82
2024/01/02 07:54:09;;;;;;;1.00;1.00;;;4.70;99.90;;;;;;5023450;28;20025;-83
2024/01/02 07:56:34;;;;;;;1.02;1.02;;;4.70;99.90;;;;;;5029031;28;20056;-84
2024/01/02 07:59:00;;;;;;;0.77;0.77;;;4.70;99.90;;;;;;5026557;28;20049;-81
2024/01/02 08:01:25;;;;;;;0.70;0.70;;;4.60;99.90;;;;;;5025457;28;20043;-85
2024/01/02 08:03:51;;;;;;;0.95;0.95;;;4.60;99.90;;;;;;5021797;28;20048;-85
2024/01/02 08:06:17;;;;;;;1.17;0.60;;;4.60;99.90;;;;;;5021553;28;20025;-82
2024/01/02 08:08:42;;;;;;;0.93;0.90;;;4.50;99.90;;;;;;5024050;28;20045;-82
2024/01/02 08:11:09;;;;;;;2.10;0.90;;;4.50;99.90;;;;;;5022062;28;20018;-87
2024/01/02 08:13:34;;;;;;;0.95;0.80;;;4.50;99.90;;;;;;5021801;28;20087;-82
2024/01/02 08:16:03;;;;;;;0.70;0.70;;;4.50;99.90;;;;;;5012791;28;20025;-83
2024/01/02 08:18:40;;;;;;;0.77;0.77;;;4.40;99.90;;;;;;5019912;28;20087;-91
2024/01/02 08:21:07;;;;;;;0.80;0.80;;;4.40;99.90;;;;;;5023835;28;20576;-83
2024/01/02 08:23:33;;;;;;;0.77;0.77;;;4.40;99.90;;;;;;5022638;28;20033;-84
2024/01/02 08:26:00;;;;;;;1.00;0.90;;;4.40;99.90;;;;;;5022809;28;20057;-85
2024/01/02 08:28:26;;;;;;;1.00;0.90;;;4.30;99.90;;;;;;5022593;28;20045;-86
2024/01/02 08:30:52;;;;;;;2.38;0.82;;;4.30;99.90;;;;;;5022705;28;20701;-88
2024/01/02 08:33:17;;;;;;;1.17;1.08;;;4.30;99.90;;;;;;5019186;28;20375;-87
2024/01/02 08:35:44;;;;;;;0.80;0.80;;;4.20;99.90;;;;;;5017089;28;20021;-85
2024/01/02 08:38:09;;;;;;;1.20;1.10;;;4.20;99.90;;;;;;5015300;28;20026;-85
2024/01/02 08:40:35;;;;;;;1.50;1.13;;;4.20;99.90;;;;;;5025258;28;20033;-84
2024/01/02 08:43:01;;;;;;;0.70;0.70;;;4.20;99.90;;;;;;5023746;28;20028;-85
2024/01/02 08:45:27;;;;;;;1.48;0.90;;;4.10;99.90;;;;;;5017904;28;20025;-84
2024/01/02 08:47:53;;;;;;;0.93;0.80;;;4.10;99.90;;;;;;5025119;28;20051;-84
2024/01/02 08:50:23;;;;;;;0.73;0.73;;;4.10;99.90;;;;;;5019752;28;20068;-86
2024/01/02 08:52:52;;;;;;;3.15;0.90;;;4.10;99.90;;;;;;5020888;28;20048;-84
2024/01/02 08:55:18;;;;;;;1.00;1.00;;;4.10;99.90;;;;;;5025377;28;20464;-82
2024/01/02 08:57:44;;;;;;;0.85;0.85;;;4.20;99.90;;;;;;5025510;28;20536;-84
2024/01/02 09:00:13;;;;;;;4.63;3.17;;;4.20;99.90;;;;;;5023343;28;20033;-85
2024/01/02 09:02:39;;;;;;;1.25;1.23;;;4.20;99.90;;;;;;5020129;28;20135;-85
2024/01/02 09:05:05;;;;;;;3.25;1.40;;;4.20;99.90;;;;;;5022141;28;20034;-85
2024/01/02 09:07:31;;;;;;;1.67;0.90;;;4.20;99.90;;;;;;5037186;28;20060;-84
2024/01/02 09:09:57;;;;;;;0.90;0.90;;;4.30;99.90;;;;;;5029272;28;20025;-86
2024/01/02 09:12:22;;;;;;;2.15;1.70;;;4.30;99.90;;;;;;5015337;28;20079;-85
2024/01/02 09:14:48;;;;;;;1.40;1.35;;;4.30;99.90;;;;;;5028530;28;20037;-86
2024/01/02 09:17:16;;;;;;;2.65;1.35;;;4.30;99.90;;;;;;5024024;28;20029;-86
2024/01/02 09:19:42;;;;;;;1.27;1.13;;;4.30;99.90;;;;;;5010547;28;20064;-86
2024/01/02 09:22:10;;;;;;;2.58;1.13;;;4.30;99.90;;;;;;5025693;28;20030;-85
2024/01/02 09:24:35;;;;;;;1.20;1.13;;;4.40;99.90;;;;;;5025976;28;20028;-83
2024/01/02 09:27:04;;;;;;;1.55;0.80;;;4.40;99.90;;;;;;5016269;28;20033;-85
2024/01/02 09:29:31;;;;;;;1.67;0.90;;;4.40;99.90;;;;;;5020849;28;20048;-83
2024/01/02 09:31:57;;;;;;;0.73;0.73;;;4.50;99.90;;;;;;5029310;28;20052;-85
2024/01/02 09:34:24;;;;;;;1.02;0.80;;;4.60;99.90;;;;;;5027813;28;20029;-86
2024/01/02 09:36:52;;;;;;;7.70;1.65;;;4.60;99.90;;;;;;5029322;28;20064;-83
2024/01/02 09:39:17;;;;;;;0.60;0.60;;;4.60;99.90;;;;;;5027838;28;20029;-87
2024/01/02 09:42:34;;;;;;;0.60;0.60;;;4.70;99.90;;;;;;5029249;28;20021;-87
2024/01/02 09:45:03;;;;;;;0.60;0.60;;;4.70;99.90;;;;;;4979741;28;20041;-85
2024/01/02 09:47:49;;;;;;;0.60;0.60;;;4.80;99.90;;;;;;5010430;28;20040;-84
2024/01/02 09:50:26;;;;;;;;;;;4.80;99.90;;;;;;5020264;28;20057;-86
2024/01/02 09:53:09;;;;;;;0.70;0.70;;;4.90;99.90;;;;;;5028716;28;19921;-84
2024/01/02 09:55:41;;;;;;;0.70;0.70;;;4.90;99.90;;;;;;5022340;28;20041;-85
2024/01/02 09:58:24;;;;;;;0.68;0.68;;;5.00;99.90;;;;;;5040115;28;20104;-82
2024/01/02 10:00:57;;;;;;;0.57;0.57;;;5.00;99.90;;;;;;5046476;28;20385;-83
2024/01/02 10:03:32;;;;;;;0.60;0.60;;;5.10;99.90;;;;;;5029364;28;21047;-85
2024/01/02 10:06:18;;;;;;;0.70;0.70;;;5.10;99.90;;;;;;5020029;28;20469;-86
2024/01/02 10:09:04;;;;;;;0.80;0.80;;;5.20;99.90;;;;;;5001204;28;20037;-87
2024/01/02 10:11:45;;;;;;;0.57;0.57;;;5.20;99.90;;;;;;5023090;28;20408;-81
2024/01/02 10:14:25;;;;;;;0.70;0.70;;;5.20;99.90;;;;;;5021973;28;20541;-85
2024/01/02 10:17:17;;;;;;;0.60;0.60;;;5.20;99.90;;;;;;5022022;28;20037;-86
2024/01/02 10:20:24;;;;;;;0.70;0.70;;;5.20;99.90;;;;;;5020787;28;20025;-82
2024/01/02 10:23:04;;;;;;;0.85;0.85;;;5.20;99.90;;;;;;5016480;28;20068;-85
2024/01/02 10:25:31;;;;;;;0.70;0.70;;;5.30;99.90;;;;;;5034903;28;20033;-82
2024/01/02 10:28:19;;;;;;;0.52;0.52;;;5.30;99.90;;;;;;5027010;28;20330;-83
2024/01/02 10:30:53;;;;;;;0.60;0.60;;;5.40;99.90;;;;;;5026135;28;20032;-83
2024/01/02 10:33:39;;;;;;;0.60;0.60;;;5.40;99.90;;;;;;5021687;28;20048;-86
2024/01/02 10:36:11;;;;;;;0.75;0.75;;;5.40;99.90;;;;;;5025529;28;20083;-83
2024/01/02 10:38:36;;;;;;;3.67;1.10;;;5.50;99.90;;;;;;5038307;28;20344;-87
2024/01/02 10:41:17;;;;;;;0.80;0.80;;;5.50;99.90;;;;;;5024726;28;20042;-85
2024/01/02 10:44:09;;;;;;;0.60;0.60;;;5.60;99.90;;;;;;5025638;28;20197;-87
2024/01/02 10:46:54;;;;;;;0.60;0.60;;;5.60;99.90;;;;;;5019745;28;20036;-84
2024/01/02 10:49:31;;;;;;;0.60;0.60;;;5.70;99.90;;;;;;5026208;28;20079;-83
2024/01/02 10:52:16;;;;;;;0.70;0.70;;;5.80;99.90;;;;;;5022838;28;20034;-82
2024/01/02 10:55:07;;;;;;;1.45;1.38;;;5.90;99.90;;;;;;5011470;28;20060;-83
2024/01/02 10:57:52;;;;;;;0.50;0.50;;;5.90;99.90;;;;;;5026653;28;20117;-83
2024/01/02 11:00:22;;;;;;;0.60;0.60;;;5.90;99.90;;;;;;5027021;28;20049;-85
2024/01/02 11:02:57;;;;;;;0.60;0.60;;;6.00;99.90;;;;;;5016809;28;20052;-84
2024/01/02 11:05:39;;;;;;;0.60;0.60;;;6.00;99.90;;;;;;5026055;28;20014;-88
2024/01/02 11:08:29;;;;;;;0.60;0.60;;;6.10;99.90;;;;;;5024612;28;20034;-85
2024/01/02 11:11:06;;;;;;;0.50;0.50;;;6.10;99.90;;;;;;5018624;28;20029;-88
2024/01/02 11:13:38;;;;;;;0.60;0.60;;;6.20;99.90;;;;;;5029210;28;20067;-82
2024/01/02 11:16:10;;;;;;;0.57;0.57;;;6.30;99.90;;;;;;5026687;28;20059;-85
2024/01/02 11:18:40;;;;;;;0.60;0.60;;;6.30;99.90;;;;;;5027122;28;20020;-82
2024/01/02 11:21:38;;;;;;;0.60;0.60;;;6.30;99.90;;;;;;5031885;28;20032;-85
2024/01/02 11:24:07;;;;;;;0.52;0.52;;;6.40;99.90;;;;;;5013760;28;20029;-83
2024/01/02 11:26:41;;;;;;;0.60;0.60;;;6.40;99.90;;;;;;5019921;28;20100;-80
2024/01/02 11:29:15;;;;;;;0.60;0.60;;;6.50;99.90;;;;;;5021098;28;20030;-89
2024/01/02 11:31:41;;;;;;;0.55;0.55;;;6.60;99.90;;;;;;5026789;28;20046;-83
2024/01/02 11:34:26;;;;;;;0.60;0.60;;;6.60;99.90;;;;;;5024217;28;20485;-87
2024/01/02 11:37:00;;;;;;;0.50;0.50;;;6.60;99.90;;;;;;5027023;28;20029;-85
2024/01/02 11:39:44;;;;;;;0.50;0.50;;;6.70;99.90;;;;;;5024666;28;20063;-85
2024/01/02 11:42:12;;;;;;;0.45;0.45;;;6.70;99.90;;;;;;5023159;28;20104;-82
2024/01/02 11:45:11;;;;;;;0.60;0.60;;;6.80;99.90;;;;;;5025681;28;20025;-89
2024/01/02 11:47:42;;;;;;;0.80;0.80;;;6.80;99.90;;;;;;5024326;28;20079;-85
2024/01/02 11:50:09;;;;;;;0.60;0.60;;;6.90;99.90;;;;;;5023614;28;20120;-85
2024/01/02 11:52:57;;;;;;;0.70;0.70;;;6.90;99.90;;;;;;5021647;28;20196;-81
2024/01/02 11:55:38;;;;;;;0.50;0.50;;;7.00;99.90;;;;;;5021476;28;20288;-85
2024/01/02 11:58:14;;;;;;;0.75;0.75;;;7.00;99.90;;;;;;5022286;28;20025;-89
2024/01/02 12:00:46;;;;;;;0.60;0.60;;;7.00;99.90;;;;;;5022137;28;20049;-85
2024/01/02 12:03:29;;;;;;;0.68;0.68;;;7.00;99.90;;;;;;5021546;28;20045;-84
2024/01/02 12:06:03;;;;;;;3.70;2.00;;;7.00;99.90;;;;;;5024703;28;20064;-84
2024/01/02 12:08:31;;;;;;;2.60;1.30;;;7.00;99.90;;;;;;5024334;28;20417;-83
2024/01/02 12:11:04;;;;;;;1.15;1.00;;;7.00;99.90;;;;;;5020697;28;20033;-83
2024/01/02 12:13:58;;;;;;;0.82;0.82;;;7.00;99.90;;;;;;5021962;28;20087;-83
2024/01/02 12:16:29;;;;;;;1.27;1.00;;;7.00;99.90;;;;;;5017722;28;20057;-89
2024/01/02 12:18:56;;;;;;;1.20;0.98;;;7.00;99.90;;;;;;5028889;28;20040;-91
2024/01/02 12:21:26;;;;;;;1.23;1.00;;;7.00;99.90;;;;;;5013684;28;20156;-84
2024/01/02 12:23:54;;;;;;;1.73;1.10;;;7.00;99.90;;;;;;5025971;28;20041;-86
2024/01/02 12:26:22;;;;;;;2.47;1.10;;;7.00;99.90;;;;;;5014990;28;20030;-83
2024/01/02 12:28:48;;;;;;;1.00;0.90;;;7.00;99.90;;;;;;5021423;28;20106;-83
2024/01/02 12:31:38;;;;;;;0.80;0.80;;;7.00;99.90;;;;;;5012687;28;20034;-84
2024/01/02 12:34:15;;;;;;;0.65;0.60;;;7.00;99.90;;;;;;5020963;28;20059;-85
2024/01/02 12:36:55;;;;;;;0.80;0.70;;;7.00;99.90;;;;;;5025066;28;20112;-88
2024/01/02 12:39:23;;;;;;;0.60;0.60;;;7.10;99.90;;;;;;5016747;28;20022;-84
2024/01/02 12:41:54;;;;;;;1.95;1.00;;;7.10;99.90;;;;;;5011834;28;20030;-89
2024/01/02 12:44:22;;;;;;;0.93;0.93;;;7.10;99.90;;;;;;5034979;28;20485;-89
2024/01/02 12:46:56;;;;;;;1.30;1.20;;;7.10;99.90;;;;;;5032657;28;20034;-84
2024/01/02 12:49:28;;;;;;;1.00;1.00;;;7.10;99.90;;;;;;5019715;28;20036;-84
2024/01/02 12:52:04;;;;;;;0.90;0.70;;;7.10;99.90;;;;;;5022353;28;20486;-86
2024/01/02 12:54:30;;;;;;;1.13;0.75;;;7.10;99.90;;;;;;5018279;28;20451;-84
2024/01/02 12:57:05;;;;;;;0.70;0.70;;;7.20;99.90;;;;;;5016959;28;20060;-83
2024/01/02 12:59:33;;;;;;;0.60;0.60;;;7.30;99.90;;;;;;5032854;28;20464;-85
2024/01/02 13:02:05;;;;;;;0.60;0.60;;;7.40;99.90;;;;;;5018926;28;20572;-85